createdAt,value
2023-03-07T00:02:02.785Z,38.45
2023-03-07T00:04:30.187Z,38.15
2023-03-07T00:06:57.710Z,36.22
2023-03-07T00:09:26.291Z,36.53
2023-03-07T00:11:53.880Z,39.20
2023-03-07T00:14:21.355Z,34.97
2023-03-07T00:16:51.630Z,36.35
2023-03-07T00:19:19.090Z,36.00
2023-03-07T00:21:46.533Z,36.47
2023-03-07T00:24:14.029Z,36.03
2023-03-07T00:26:41.516Z,38.42
2023-03-07T00:29:10.379Z,37.25
2023-03-07T00:31:38.046Z,35.03
2023-03-07T00:34:05.660Z,36.50
2023-03-07T00:36:33.220Z,37.00
2023-03-07T00:39:00.605Z,39.40
2023-03-07T00:41:29.342Z,40.17
2023-03-07T00:43:56.840Z,40.13
2023-03-07T00:46:25.962Z,37.75
2023-03-07T00:48:54.517Z,38.92
2023-03-07T00:51:23.515Z,41.10
2023-03-07T00:53:51.407Z,40.10
2023-03-07T00:56:23.066Z,40.38
2023-03-07T00:58:51.626Z,39.13
2023-03-07T01:01:23.373Z,39.35
2023-03-07T01:03:53.944Z,37.90
2023-03-07T01:06:24.464Z,38.70
2023-03-07T01:08:54.071Z,39.55
2023-03-07T01:11:21.617Z,37.83
2023-03-07T01:13:49.102Z,38.72
2023-03-07T01:16:19.809Z,38.88
2023-03-07T01:19:08.526Z,40.75
2023-03-07T01:21:39.276Z,39.25
2023-03-07T01:24:08.050Z,39.97
2023-03-07T01:26:35.782Z,38.80
2023-03-07T01:29:05.729Z,39.35
2023-03-07T01:31:38.402Z,38.20
2023-03-07T01:34:07.231Z,38.50
2023-03-07T01:36:36.960Z,38.35
2023-03-07T01:39:14.659Z,38.78
2023-03-07T01:41:56.264Z,39.78
2023-03-07T01:44:27.791Z,38.65
2023-03-07T01:47:00.528Z,43.22
2023-03-07T01:49:45.611Z,42.05
2023-03-07T01:52:32.611Z,43.15
2023-03-07T01:55:11.836Z,45.25
2023-03-07T01:57:43.589Z,46.75
2023-03-07T02:00:18.807Z,46.92
2023-03-07T02:02:49.640Z,45.22
2023-03-07T02:05:28.097Z,47.97
2023-03-07T02:07:59.052Z,46.45
2023-03-07T02:10:30.749Z,48.10
2023-03-07T02:12:58.193Z,49.72
2023-03-07T02:15:25.805Z,48.38
2023-03-07T02:17:53.844Z,46.60
2023-03-07T02:20:56.271Z,45.58
2023-03-07T02:23:24.344Z,46.42
2023-03-07T02:25:58.248Z,47.22
2023-03-07T02:28:27.180Z,51.25
2023-03-07T02:31:00.861Z,50.72
2023-03-07T02:33:32.027Z,52.15
2023-03-07T02:36:08.207Z,49.25
2023-03-07T02:38:40.950Z,49.20
2023-03-07T02:41:12.113Z,38.27
2023-03-07T02:43:39.809Z,52.25
2023-03-07T02:46:08.223Z,49.67
2023-03-07T02:48:35.678Z,48.63
2023-03-07T02:51:03.706Z,47.45
2023-03-07T02:53:31.359Z,46.83
2023-03-07T02:55:58.762Z,46.28
2023-03-07T02:58:26.506Z,43.28
2023-03-07T03:00:53.907Z,42.45
2023-03-07T03:03:21.472Z,45.80
2023-03-07T03:05:49.093Z,43.38
2023-03-07T03:08:16.568Z,39.67
2023-03-07T03:10:44.180Z,40.67
2023-03-07T03:13:12.817Z,39.90
2023-03-07T03:15:42.319Z,39.30
2023-03-07T03:18:09.787Z,38.03
2023-03-07T03:20:39.901Z,38.30
2023-03-07T03:23:07.319Z,40.78
2023-03-07T03:25:35.903Z,38.50
2023-03-07T03:28:04.469Z,39.05
2023-03-07T03:30:35.771Z,39.13
2023-03-07T03:33:04.143Z,38.80
2023-03-07T03:35:33.656Z,38.15
2023-03-07T03:38:01.967Z,40.03
2023-03-07T03:40:29.581Z,37.95
2023-03-07T03:42:57.236Z,38.25
2023-03-07T03:45:26.407Z,39.45
2023-03-07T03:47:54.224Z,37.45
2023-03-07T03:50:21.887Z,37.15
2023-03-07T03:52:49.371Z,38.95
2023-03-07T03:55:16.934Z,36.70
2023-03-07T03:57:44.380Z,37.13
2023-03-07T04:00:15.895Z,39.15
2023-03-07T04:02:44.051Z,39.58
2023-03-07T04:05:15.539Z,38.03
2023-03-07T04:07:43.013Z,36.78
2023-03-07T04:10:11.236Z,40.22
2023-03-07T04:12:39.530Z,38.17
2023-03-07T04:15:07.769Z,40.30
2023-03-07T04:17:36.167Z,39.20
2023-03-07T04:20:05.137Z,41.40
2023-03-07T04:22:33.673Z,42.90
2023-03-07T04:25:01.124Z,41.78
2023-03-07T04:27:28.663Z,43.88
2023-03-07T04:29:56.307Z,41.10
2023-03-07T04:32:23.865Z,40.42
2023-03-07T04:34:51.385Z,42.28
2023-03-07T04:37:18.801Z,43.15
2023-03-07T04:39:46.276Z,42.92
2023-03-07T04:42:14.185Z,42.20
2023-03-07T04:44:41.609Z,41.70
2023-03-07T04:47:09.027Z,40.17
2023-03-07T04:49:37.381Z,41.92
2023-03-07T04:52:06.539Z,41.85
2023-03-07T04:54:34.085Z,42.35
2023-03-07T04:57:04.068Z,41.90
2023-03-07T04:59:32.163Z,43.90
2023-03-07T05:01:59.758Z,43.80
2023-03-07T05:04:28.302Z,47.65
2023-03-07T05:06:55.994Z,46.75
2023-03-07T05:09:23.593Z,43.75
2023-03-07T05:11:53.537Z,46.38
2023-03-07T05:14:21.423Z,46.22
2023-03-07T05:16:48.906Z,46.70
2023-03-07T05:19:16.906Z,44.20
2023-03-07T05:21:44.659Z,45.00
2023-03-07T05:24:12.918Z,44.85
2023-03-07T05:26:40.822Z,44.65
2023-03-07T05:29:08.339Z,45.03
2023-03-07T05:31:36.417Z,45.63
2023-03-07T05:34:06.062Z,46.72
2023-03-07T05:36:33.765Z,45.20
2023-03-07T05:39:01.741Z,47.03
2023-03-07T05:41:29.343Z,48.13
2023-03-07T05:43:58.265Z,47.83
2023-03-07T05:46:26.218Z,48.65
2023-03-07T05:48:53.864Z,46.83
2023-03-07T05:51:21.726Z,45.22
2023-03-07T05:53:49.680Z,45.85
2023-03-07T05:56:17.568Z,44.78
2023-03-07T05:58:45.103Z,47.75
2023-03-07T06:01:13.081Z,45.45
2023-03-07T06:03:40.769Z,47.20
2023-03-07T06:06:08.606Z,47.10
2023-03-07T06:08:36.058Z,46.75
2023-03-07T06:11:03.763Z,45.90
2023-03-07T06:13:31.547Z,48.33
2023-03-07T06:15:59.805Z,47.53
2023-03-07T06:18:27.312Z,47.05
2023-03-07T06:21:03.735Z,47.28
2023-03-07T06:23:37.536Z,50.22
2023-03-07T06:26:10.426Z,48.30
2023-03-07T06:28:39.706Z,45.67
2023-03-07T06:31:11.308Z,52.75
2023-03-07T06:33:39.350Z,36.95
2023-03-07T06:36:12.806Z,45.45
2023-03-07T06:38:42.257Z,43.53
2023-03-07T06:41:10.194Z,46.05
2023-03-07T06:43:38.469Z,45.63
2023-03-07T06:46:07.515Z,50.03
2023-03-07T06:48:39.643Z,48.17
2023-03-07T06:51:11.130Z,44.80
2023-03-07T06:53:41.240Z,46.33
2023-03-07T06:56:09.021Z,46.75
2023-03-07T06:58:37.217Z,42.28
2023-03-07T07:01:04.992Z,42.63
2023-03-07T07:03:35.212Z,41.42
2023-03-07T07:06:03.720Z,41.05
2023-03-07T07:08:31.700Z,40.08
2023-03-07T07:10:59.627Z,41.38
2023-03-07T07:13:27.871Z,42.88
2023-03-07T07:15:55.447Z,42.15
2023-03-07T07:18:24.608Z,42.38
2023-03-07T07:20:56.312Z,45.13
2023-03-07T07:23:26.465Z,43.05
2023-03-07T07:25:54.546Z,45.53
2023-03-07T07:28:22.378Z,46.42
2023-03-07T07:30:50.131Z,44.83
2023-03-07T07:33:18.069Z,42.70
2023-03-07T07:35:49.246Z,40.55
2023-03-07T07:38:16.757Z,42.10
2023-03-07T07:40:45.058Z,41.70
2023-03-07T07:43:17.556Z,40.15
2023-03-07T07:48:23.438Z,40.95
2023-03-07T07:50:50.938Z,46.05
2023-03-07T07:53:18.673Z,44.40
2023-03-07T07:55:48.912Z,44.70
2023-03-07T07:58:16.981Z,44.67
2023-03-07T08:00:46.139Z,45.38
2023-03-07T08:03:13.589Z,47.45
2023-03-07T08:05:45.564Z,46.45
2023-03-07T08:08:12.975Z,46.13
2023-03-07T08:10:43.113Z,46.10
2023-03-07T08:13:15.027Z,47.53
2023-03-07T08:15:42.891Z,46.10
2023-03-07T08:18:10.977Z,44.65
2023-03-07T08:20:39.635Z,44.75
2023-03-07T08:23:07.763Z,45.28
2023-03-07T08:25:35.405Z,41.95
2023-03-07T08:28:05.041Z,42.55
2023-03-07T08:30:35.179Z,39.05
2023-03-07T08:33:03.389Z,41.05
2023-03-07T08:35:31.706Z,40.42
2023-03-07T08:38:00.591Z,40.33
2023-03-07T08:40:29.967Z,41.30
2023-03-07T08:42:59.242Z,42.13
2023-03-07T08:45:26.918Z,42.53
2023-03-07T08:47:57.800Z,43.35
2023-03-07T08:50:28.141Z,42.03
2023-03-07T08:52:55.693Z,43.45
2023-03-07T08:55:23.373Z,45.20
2023-03-07T08:57:51.124Z,44.95
2023-03-07T09:00:18.992Z,45.10
2023-03-07T09:02:46.672Z,42.88
2023-03-07T09:05:14.046Z,44.45
2023-03-07T09:07:42.461Z,43.42
2023-03-07T09:10:11.671Z,45.65
2023-03-07T09:12:39.078Z,46.03
2023-03-07T09:15:06.971Z,44.42
2023-03-07T09:17:34.376Z,44.42
2023-03-07T09:20:01.796Z,45.55
2023-03-07T09:22:29.240Z,44.80
2023-03-07T09:24:56.955Z,44.20
2023-03-07T09:27:24.758Z,45.83
2023-03-07T09:29:52.180Z,46.92
2023-03-07T09:32:19.615Z,44.88
2023-03-07T09:34:47.041Z,46.55
2023-03-07T09:37:14.993Z,45.63
2023-03-07T09:39:42.460Z,45.13
2023-03-07T09:42:19.211Z,44.83
2023-03-07T09:44:55.457Z,41.40
2023-03-07T09:48:26.035Z,43.10
2023-03-07T09:51:15.587Z,45.30
2023-03-07T09:53:50.715Z,46.42
2023-03-07T09:56:35.941Z,42.53
2023-03-07T09:59:22.698Z,43.08
2023-03-07T10:02:10.999Z,42.85
2023-03-07T10:05:00.958Z,40.17
2023-03-07T10:07:29.530Z,38.97
2023-03-07T10:10:12.246Z,39.90
2023-03-07T10:13:17.084Z,37.25
2023-03-07T10:15:57.808Z,37.13
2023-03-07T10:18:44.106Z,39.45
2023-03-07T10:21:42.205Z,36.95
2023-03-07T10:24:48.212Z,36.97
2023-03-07T10:27:16.571Z,37.58
2023-03-07T10:29:49.251Z,36.47
2023-03-07T10:32:39.536Z,36.03
2023-03-07T10:35:15.692Z,39.75
2023-03-07T10:38:05.220Z,35.85
2023-03-07T10:40:40.099Z,36.15
2023-03-07T10:43:23.156Z,35.75
2023-03-07T10:45:59.149Z,36.75
2023-03-07T10:48:28.143Z,33.45
2023-03-07T10:51:06.037Z,34.25
2023-03-07T10:53:36.703Z,30.98
2023-03-07T10:56:14.580Z,32.45
2023-03-07T10:59:03.937Z,30.15
2023-03-07T11:01:33.763Z,28.80
2023-03-07T11:04:06.281Z,28.23
2023-03-07T11:06:51.884Z,29.52
2023-03-07T11:09:35.546Z,28.83
2023-03-07T11:12:05.855Z,29.10
2023-03-07T11:14:52.548Z,31.80
2023-03-07T11:17:27.297Z,50.53
2023-03-07T11:19:55.960Z,35.83
2023-03-07T11:22:35.758Z,26.85
2023-03-07T11:25:29.516Z,26.52
2023-03-07T11:27:58.552Z,27.67
2023-03-07T11:30:30.505Z,25.55
2023-03-07T11:33:16.714Z,24.52
2023-03-07T11:36:06.861Z,25.77
2023-03-07T11:38:46.033Z,26.00
2023-03-07T11:41:35.962Z,25.05
2023-03-07T11:44:25.379Z,23.67
2023-03-07T11:47:13.745Z,23.83
2023-03-07T11:49:55.669Z,23.92
2023-03-07T11:52:42.709Z,24.80
2023-03-07T11:55:43.977Z,24.88
2023-03-07T11:58:26.221Z,24.83
2023-03-07T12:00:59.361Z,23.10
2023-03-07T12:04:01.603Z,22.05
2023-03-07T12:06:50.062Z,19.52
2023-03-07T12:09:35.972Z,19.05
2023-03-07T12:12:16.906Z,18.20
2023-03-07T12:15:20.744Z,17.38
2023-03-07T12:18:20.037Z,18.15
2023-03-07T12:21:05.918Z,18.25
2023-03-07T12:23:42.365Z,19.05
2023-03-07T12:26:25.633Z,17.48
2023-03-07T12:29:00.964Z,17.30
2023-03-07T12:31:33.589Z,18.02
2023-03-07T12:34:10.048Z,15.77
2023-03-07T12:37:02.592Z,16.90
2023-03-07T12:40:03.618Z,16.42
2023-03-07T12:42:33.800Z,16.90
2023-03-07T12:45:20.133Z,15.85
2023-03-07T12:47:59.829Z,18.88
2023-03-07T12:50:34.191Z,17.17
2023-03-07T12:53:27.152Z,14.20
2023-03-07T12:56:15.425Z,14.85
2023-03-07T12:59:15.924Z,12.30
2023-03-07T13:01:52.710Z,14.10
2023-03-07T13:04:30.202Z,13.05
2023-03-07T13:07:18.658Z,14.57
2023-03-07T13:09:48.867Z,13.23
2023-03-07T13:12:16.461Z,14.25
2023-03-07T13:14:45.775Z,13.23
2023-03-07T13:17:35.265Z,13.20
2023-03-07T13:20:05.117Z,13.25
2023-03-07T13:22:32.483Z,13.40
2023-03-07T13:25:29.649Z,11.98
2023-03-07T13:28:02.525Z,12.13
2023-03-07T13:33:25.135Z,12.50
2023-03-07T13:35:58.222Z,12.63
2023-03-07T13:38:33.730Z,12.60
2023-03-07T13:41:05.668Z,12.90
2023-03-07T13:43:53.032Z,12.90
2023-03-07T13:46:38.789Z,12.75
2023-03-07T13:49:07.496Z,12.07
2023-03-07T13:51:34.890Z,11.77
2023-03-07T13:54:04.587Z,12.23
2023-03-07T13:56:39.468Z,12.85
2023-03-07T13:59:12.655Z,12.05
2023-03-07T14:01:42.812Z,12.43
2023-03-07T14:04:37.002Z,12.60
2023-03-07T14:07:22.358Z,12.93
2023-03-07T14:09:55.878Z,10.93
2023-03-07T14:12:45.880Z,11.55
2023-03-07T14:15:21.924Z,13.88
2023-03-07T14:18:14.430Z,14.93
2023-03-07T14:21:01.003Z,11.82
2023-03-07T14:23:34.978Z,11.48
2023-03-07T14:26:21.388Z,11.52
2023-03-07T14:28:50.348Z,12.50
2023-03-07T14:31:25.395Z,12.43
2023-03-07T14:33:53.582Z,11.52
2023-03-07T14:36:30.937Z,11.45
2023-03-07T14:39:04.348Z,12.48
2023-03-07T14:42:13.731Z,13.10
2023-03-07T14:45:20.030Z,12.40
2023-03-07T14:48:05.577Z,11.93
2023-03-07T14:50:34.037Z,12.02
2023-03-07T14:53:12.065Z,12.10
2023-03-07T14:55:42.972Z,11.60
2023-03-07T14:58:23.569Z,11.93
2023-03-07T15:01:01.091Z,12.00
2023-03-07T15:03:29.842Z,11.70
2023-03-07T15:05:59.865Z,11.43
2023-03-07T15:08:29.965Z,11.75
2023-03-07T15:11:38.267Z,11.55
2023-03-07T15:14:12.255Z,10.85
2023-03-07T15:16:48.402Z,11.38
2023-03-07T15:19:43.190Z,11.75
2023-03-07T15:22:25.416Z,12.88
2023-03-07T15:24:53.187Z,12.00
2023-03-07T15:27:28.597Z,12.38
2023-03-07T15:29:56.712Z,12.50
2023-03-07T15:32:39.085Z,12.18
2023-03-07T15:38:13.884Z,11.85
2023-03-07T15:40:42.219Z,12.63
2023-03-07T15:43:21.576Z,12.98
2023-03-07T15:46:19.051Z,12.05
2023-03-07T15:48:52.325Z,12.02
2023-03-07T15:51:23.890Z,12.05
2023-03-07T15:54:04.349Z,13.00
2023-03-07T15:56:36.938Z,11.77
2023-03-07T15:59:15.523Z,12.00
2023-03-07T16:01:43.318Z,11.48
2023-03-07T16:04:37.364Z,11.88
2023-03-07T16:07:06.395Z,13.30
2023-03-07T16:09:33.808Z,12.43
2023-03-07T16:12:05.575Z,12.85
2023-03-07T16:14:33.680Z,11.80
2023-03-07T16:17:29.771Z,10.90
2023-03-07T16:19:57.457Z,10.32
2023-03-07T16:22:26.144Z,8.52
2023-03-07T16:24:53.579Z,7.50
2023-03-07T16:27:23.598Z,7.43
2023-03-07T16:29:53.201Z,6.57
2023-03-07T16:32:22.669Z,6.15
2023-03-07T16:34:50.831Z,5.25
2023-03-07T16:37:18.510Z,6.85
2023-03-07T16:39:45.949Z,5.93
2023-03-07T16:42:21.335Z,6.05
2023-03-07T16:44:51.160Z,6.95
2023-03-07T16:47:18.908Z,8.50
2023-03-07T16:49:50.935Z,7.82
2023-03-07T16:52:18.463Z,7.35
2023-03-07T16:54:45.872Z,6.93
2023-03-07T16:57:16.534Z,7.35
2023-03-07T16:59:46.969Z,6.60
2023-03-07T17:02:19.219Z,6.68
2023-03-07T17:04:47.174Z,6.93
2023-03-07T17:07:20.339Z,5.88
2023-03-07T17:09:48.310Z,5.82
2023-03-07T17:12:16.423Z,6.00
2023-03-07T17:14:45.276Z,5.68
2023-03-07T17:17:19.607Z,5.57
2023-03-07T17:19:47.094Z,6.07
2023-03-07T17:22:14.469Z,5.60
2023-03-07T17:24:41.878Z,6.50
2023-03-07T17:27:09.505Z,5.70
2023-03-07T17:29:43.681Z,7.05
2023-03-07T17:32:11.625Z,7.40
2023-03-07T17:34:39.282Z,6.82
2023-03-07T17:37:07.241Z,6.32
2023-03-07T17:39:35.101Z,7.90
2023-03-07T17:42:03.506Z,8.02
2023-03-07T17:44:31.622Z,7.25
2023-03-07T17:46:59.436Z,8.07
2023-03-07T17:49:35.861Z,7.65
2023-03-07T17:52:05.238Z,7.90
2023-03-07T17:54:33.287Z,6.15
2023-03-07T17:57:01.726Z,7.15
2023-03-07T17:59:32.306Z,6.25
2023-03-07T18:01:59.770Z,6.40
2023-03-07T18:04:30.998Z,6.15
2023-03-07T18:06:59.603Z,7.00
2023-03-07T18:09:27.326Z,7.25
2023-03-07T18:11:54.754Z,7.07
2023-03-07T18:14:22.728Z,6.88
2023-03-07T18:16:50.766Z,7.25
2023-03-07T18:19:26.203Z,7.32
2023-03-07T18:21:55.527Z,8.60
2023-03-07T18:24:30.218Z,10.05
2023-03-07T18:27:03.257Z,9.55
2023-03-07T18:29:31.124Z,9.65
2023-03-07T18:31:58.543Z,10.57
2023-03-07T18:34:25.968Z,8.73
2023-03-07T18:36:54.375Z,7.78
2023-03-07T18:39:23.178Z,7.55
2023-03-07T18:41:51.044Z,7.28
2023-03-07T18:44:19.684Z,7.68
2023-03-07T18:46:47.298Z,8.45
2023-03-07T18:49:14.917Z,8.95
2023-03-07T18:51:45.715Z,8.15
2023-03-07T18:54:14.079Z,7.57
2023-03-07T18:56:42.724Z,8.20
2023-03-07T18:59:10.303Z,7.25
2023-03-07T19:01:39.636Z,8.73
2023-03-07T19:04:08.218Z,7.97
2023-03-07T19:06:39.230Z,8.48
2023-03-07T19:09:13.814Z,8.20
2023-03-07T19:11:41.204Z,7.55
2023-03-07T19:14:08.542Z,8.23
2023-03-07T19:16:36.132Z,7.30
2023-03-07T19:19:03.786Z,8.55
2023-03-07T19:21:32.078Z,8.98
2023-03-07T19:24:01.592Z,8.63
2023-03-07T19:26:29.378Z,9.02
2023-03-07T19:28:57.558Z,7.35
2023-03-07T19:31:27.728Z,6.90
2023-03-07T19:33:55.951Z,7.50
2023-03-07T19:36:27.342Z,7.72
2023-03-07T19:38:57.130Z,6.10
2023-03-07T19:41:26.062Z,8.70
2023-03-07T19:43:55.018Z,9.15
2023-03-07T19:46:22.685Z,8.15
2023-03-07T19:48:50.599Z,8.70
2023-03-07T19:51:26.149Z,8.15
2023-03-07T19:53:56.946Z,10.02
2023-03-07T19:56:27.712Z,8.73
2023-03-07T19:58:56.143Z,9.40
2023-03-07T20:01:24.760Z,8.63
2023-03-07T20:03:53.417Z,10.85
2023-03-07T20:06:27.194Z,9.20
2023-03-07T20:08:55.862Z,8.45
2023-03-07T20:11:28.119Z,8.60
2023-03-07T20:16:25.059Z,8.48
2023-03-07T20:18:53.914Z,8.82
2023-03-07T20:21:25.707Z,8.68
2023-03-07T20:23:59.148Z,10.18
2023-03-07T20:26:35.574Z,11.93
2023-03-07T20:29:05.605Z,11.10
2023-03-07T20:31:33.872Z,9.93
2023-03-07T20:34:01.320Z,9.95
2023-03-07T20:36:33.991Z,9.77
2023-03-07T20:39:04.161Z,9.45
2023-03-07T20:41:33.096Z,9.23
2023-03-07T20:44:03.873Z,10.30
2023-03-07T20:46:32.203Z,8.68
2023-03-07T20:49:01.185Z,8.85
2023-03-07T20:51:31.798Z,9.50
2023-03-07T20:54:07.941Z,9.90
2023-03-07T20:56:37.463Z,9.93
2023-03-07T20:59:06.040Z,10.55
2023-03-07T21:01:34.583Z,11.35
2023-03-07T21:04:10.960Z,43.80
2023-03-07T21:06:43.132Z,20.33
2023-03-07T21:09:12.189Z,10.70
2023-03-07T21:11:45.145Z,10.07
2023-03-07T21:14:13.679Z,10.55
2023-03-07T21:16:41.321Z,16.52
2023-03-07T21:19:09.348Z,24.50
2023-03-07T21:21:37.597Z,20.58
2023-03-07T21:24:06.573Z,16.38
2023-03-07T21:26:36.250Z,14.35
2023-03-07T21:29:04.674Z,28.13
2023-03-07T21:31:34.104Z,12.45
2023-03-07T21:34:04.286Z,12.13
2023-03-07T21:36:31.949Z,9.73
2023-03-07T21:39:00.113Z,10.48
2023-03-07T21:41:27.648Z,11.00
2023-03-07T21:43:56.244Z,11.20
2023-03-07T21:46:24.391Z,10.90
2023-03-07T21:48:52.187Z,10.80
2023-03-07T21:51:19.957Z,10.50
2023-03-07T21:53:47.455Z,11.20
2023-03-07T21:56:17.226Z,11.75
2023-03-07T21:58:48.514Z,9.90
2023-03-07T22:01:28.043Z,10.05
2023-03-07T22:03:57.107Z,10.90
2023-03-07T22:06:25.439Z,10.18
2023-03-07T22:08:52.914Z,10.68
2023-03-07T22:11:20.517Z,13.27
2023-03-07T22:13:48.000Z,15.38
2023-03-07T22:16:23.189Z,12.43
2023-03-07T22:18:57.348Z,12.80
2023-03-07T22:21:27.872Z,12.07
2023-03-07T22:24:01.010Z,14.82
2023-03-07T22:26:30.650Z,25.30
2023-03-07T22:28:58.628Z,21.10
2023-03-07T22:31:26.526Z,11.80
2023-03-07T22:33:53.998Z,28.13
2023-03-07T22:36:21.649Z,20.83
2023-03-07T22:38:54.926Z,101.28
2023-03-07T22:41:23.390Z,22.70
2023-03-07T22:43:52.465Z,24.38
2023-03-07T22:46:20.291Z,28.55
2023-03-07T22:48:51.172Z,15.48
2023-03-07T22:51:18.595Z,14.80
2023-03-07T22:53:46.415Z,13.40
2023-03-07T22:56:24.890Z,13.73
2023-03-07T22:58:52.957Z,12.88
2023-03-07T23:01:23.245Z,12.70
2023-03-07T23:03:52.410Z,12.35
2023-03-07T23:06:20.951Z,13.00
2023-03-07T23:08:51.043Z,11.60
2023-03-07T23:11:22.647Z,11.75
2023-03-07T23:13:50.761Z,12.63
2023-03-07T23:16:20.890Z,11.45
2023-03-07T23:18:51.727Z,12.40
2023-03-07T23:21:22.859Z,11.75
2023-03-07T23:23:52.871Z,11.82
2023-03-07T23:26:32.080Z,11.63
2023-03-07T23:29:00.365Z,11.40
2023-03-07T23:31:30.808Z,13.50
2023-03-07T23:34:00.691Z,11.77
2023-03-07T23:36:29.837Z,11.57
2023-03-07T23:38:58.460Z,12.95
2023-03-07T23:41:26.756Z,12.98
2023-03-07T23:43:57.242Z,12.98
2023-03-07T23:46:25.600Z,13.90
2023-03-07T23:48:53.828Z,12.48
2023-03-07T23:51:22.131Z,11.82
2023-03-07T23:53:49.878Z,13.05
2023-03-07T23:56:17.330Z,12.65
2023-03-07T23:58:47.447Z,14.00
